createdAt,value
2023-05-21T00:00:20.537Z,88.56
2023-05-21T00:01:20.532Z,88.35
2023-05-21T00:02:20.526Z,88.56
2023-05-21T00:03:20.604Z,88.46
2023-05-21T00:04:20.479Z,88.46
2023-05-21T00:05:20.479Z,89.06
2023-05-21T00:06:20.469Z,88.76
2023-05-21T00:07:20.469Z,88.56
2023-05-21T00:08:20.484Z,88.35
2023-05-21T00:09:20.441Z,88.76
2023-05-21T00:10:20.441Z,88.56
2023-05-21T00:11:20.418Z,88.56
2023-05-21T00:12:20.403Z,88.76
2023-05-21T00:13:20.544Z,88.56
2023-05-21T00:14:20.427Z,88.56
2023-05-21T00:15:20.384Z,88.46
2023-05-21T00:16:20.413Z,88.46
2023-05-21T00:17:20.372Z,88.76
2023-05-21T00:18:20.378Z,88.76
2023-05-21T00:19:20.388Z,88.66
2023-05-21T00:20:20.364Z,88.56
2023-05-21T00:21:20.324Z,88.35
2023-05-21T00:22:20.323Z,88.86
2023-05-21T00:23:20.303Z,88.96
2023-05-21T00:24:20.317Z,88.25
2023-05-21T00:25:20.302Z,88.46
2023-05-21T00:26:20.325Z,89.06
2023-05-21T00:27:20.267Z,89.21
2023-05-21T00:28:20.290Z,89.01
2023-05-21T00:29:20.240Z,88.96
2023-05-21T00:30:20.249Z,89.17
2023-05-21T00:31:20.280Z,89.47
2023-05-21T00:32:20.259Z,90.22
2023-05-21T00:33:20.213Z,90.32
2023-05-21T00:34:20.221Z,90.32
2023-05-21T00:35:20.200Z,90.12
2023-05-21T00:36:20.196Z,90.08
2023-05-21T00:37:20.164Z,90.22
2023-05-21T00:38:20.186Z,90.32
2023-05-21T00:39:20.155Z,90.22
2023-05-21T00:40:20.156Z,90.22
2023-05-21T00:41:20.151Z,90.22
2023-05-21T00:42:20.166Z,90.42
2023-05-21T00:43:20.143Z,89.98
2023-05-21T00:44:20.123Z,90.42
2023-05-21T00:45:20.125Z,90.22
2023-05-21T00:46:20.132Z,90.22
2023-05-21T00:47:20.231Z,90.32
2023-05-21T00:48:20.088Z,90.22
2023-05-21T00:49:20.087Z,90.02
2023-05-21T00:50:20.081Z,89.81
2023-05-21T00:51:20.071Z,89.92
2023-05-21T00:52:20.057Z,90.32
2023-05-21T00:53:20.043Z,90.12
2023-05-21T00:54:20.041Z,90.12
2023-05-21T00:55:20.029Z,90.12
2023-05-21T00:56:20.024Z,90.42
2023-05-21T00:57:20.032Z,90.57
2023-05-21T00:58:20.005Z,89.81
2023-05-21T00:59:19.976Z,89.92
2023-05-21T01:00:19.986Z,90.32
2023-05-21T01:01:19.982Z,90.32
2023-05-21T01:02:20.001Z,90.77
2023-05-21T01:03:20.062Z,90.83
2023-05-21T01:04:19.954Z,90.97
2023-05-21T01:05:19.935Z,90.47
2023-05-21T01:06:19.982Z,90.83
2023-05-21T01:07:19.962Z,91.17
2023-05-21T01:08:19.927Z,91.17
2023-05-21T01:09:19.908Z,91.28
2023-05-21T01:10:19.897Z,91.17
2023-05-21T01:11:19.893Z,90.97
2023-05-21T01:12:19.893Z,91.17
2023-05-21T01:13:19.933Z,90.88
2023-05-21T01:14:19.861Z,91.28
2023-05-21T01:15:19.853Z,90.97
2023-05-21T01:16:19.888Z,91.58
2023-05-21T01:17:19.870Z,92.29
2023-05-21T01:18:19.854Z,91.89
2023-05-21T01:19:19.873Z,91.99
2023-05-21T01:20:19.798Z,91.89
2023-05-21T01:21:19.790Z,91.99
2023-05-21T01:22:19.794Z,91.99
2023-05-21T01:23:19.776Z,91.89
2023-05-21T01:24:19.830Z,92.09
2023-05-21T01:25:19.762Z,91.89
2023-05-21T01:26:19.766Z,92.09
2023-05-21T01:27:19.739Z,91.99
2023-05-21T01:28:19.743Z,91.93
2023-05-21T01:29:19.736Z,92.24
2023-05-21T01:30:19.757Z,92.24
2023-05-21T01:31:19.726Z,92.13
2023-05-21T01:32:19.694Z,92.13
2023-05-21T01:33:19.705Z,91.83
2023-05-21T01:34:19.692Z,92.54
2023-05-21T01:35:19.667Z,92.54
2023-05-21T01:36:19.720Z,92.13
2023-05-21T01:37:19.653Z,92.33
2023-05-21T01:38:19.653Z,92.19
2023-05-21T01:39:19.626Z,92.03
2023-05-21T01:40:19.635Z,92.24
2023-05-21T01:41:19.629Z,92.44
2023-05-21T01:42:19.641Z,92.44
2023-05-21T01:43:19.616Z,92.74
2023-05-21T01:44:19.606Z,92.84
2023-05-21T01:45:19.587Z,92.64
2023-05-21T01:46:19.656Z,92.74
2023-05-21T01:47:19.576Z,92.84
2023-05-21T01:48:19.564Z,92.64
2023-05-21T01:49:19.572Z,92.84
2023-05-21T01:50:19.555Z,92.84
2023-05-21T01:51:19.528Z,93.05
2023-05-21T01:52:19.549Z,93.05
2023-05-21T01:53:19.544Z,93.15
2023-05-21T01:54:19.520Z,93.25
2023-05-21T01:55:19.505Z,93.15
2023-05-21T01:56:19.497Z,93.55
2023-05-21T01:57:19.494Z,93.05
2023-05-21T01:58:19.525Z,93.55
2023-05-21T01:59:19.484Z,93.05
2023-05-21T02:00:19.476Z,93.29
2023-05-21T02:01:19.452Z,93.49
2023-05-21T02:02:19.496Z,93.70
2023-05-21T02:03:19.561Z,93.45
2023-05-21T02:04:19.488Z,93.90
2023-05-21T02:05:19.431Z,93.65
2023-05-21T02:06:19.405Z,93.19
2023-05-21T02:07:19.391Z,93.25
2023-05-21T02:08:19.394Z,93.60
2023-05-21T02:09:19.364Z,93.49
2023-05-21T02:10:19.456Z,93.60
2023-05-21T02:11:19.352Z,94.10
2023-05-21T02:12:19.359Z,94.10
2023-05-21T02:13:19.347Z,94.51
2023-05-21T02:14:19.345Z,94.51
2023-05-21T02:15:19.363Z,94.31
2023-05-21T02:16:19.384Z,94.41
2023-05-21T02:17:19.300Z,94.21
2023-05-21T02:18:19.316Z,94.51
2023-05-21T02:19:19.476Z,94.10
2023-05-21T02:20:19.442Z,93.70
2023-05-21T02:21:19.269Z,94.41
2023-05-21T02:22:19.351Z,94.21
2023-05-21T02:23:19.252Z,94.10
2023-05-21T02:24:19.249Z,94.41
2023-05-21T02:25:19.288Z,94.61
2023-05-21T02:26:19.233Z,94.51
2023-05-21T02:27:19.235Z,94.00
2023-05-21T02:28:19.231Z,94.31
2023-05-21T02:29:19.191Z,94.41
2023-05-21T02:30:19.205Z,93.70
2023-05-21T02:31:19.188Z,94.41
2023-05-21T02:32:19.175Z,94.61
2023-05-21T02:33:19.160Z,93.90
2023-05-21T02:34:19.226Z,93.90
2023-05-21T02:35:19.140Z,94.41
2023-05-21T02:36:19.187Z,94.41
2023-05-21T02:37:19.159Z,94.00
2023-05-21T02:38:19.137Z,93.90
2023-05-21T02:39:19.129Z,94.41
2023-05-21T02:40:19.227Z,94.51
2023-05-21T02:41:19.100Z,93.90
2023-05-21T02:42:19.100Z,94.00
2023-05-21T02:43:19.092Z,95.02
2023-05-21T02:44:19.078Z,94.61
2023-05-21T02:45:19.124Z,94.92
2023-05-21T02:46:19.140Z,94.41
2023-05-21T02:47:19.061Z,94.41
2023-05-21T02:48:19.038Z,94.51
2023-05-21T02:49:19.017Z,93.70
2023-05-21T02:50:19.019Z,94.41
2023-05-21T02:51:19.035Z,94.56
2023-05-21T02:52:19.019Z,94.35
2023-05-21T02:53:18.990Z,94.56
2023-05-21T02:54:19.000Z,94.51
2023-05-21T02:55:18.989Z,95.02
2023-05-21T02:56:19.034Z,94.61
2023-05-21T02:57:19.000Z,94.92
2023-05-21T02:58:18.963Z,95.06
2023-05-21T02:59:18.943Z,94.35
2023-05-21T03:00:18.945Z,94.56
2023-05-21T03:01:18.972Z,95.37
2023-05-21T03:02:19.008Z,94.66
2023-05-21T03:03:19.042Z,95.67
2023-05-21T03:04:18.918Z,94.96
2023-05-21T03:05:18.886Z,95.47
2023-05-21T03:06:18.958Z,95.37
2023-05-21T03:07:18.928Z,94.15
2023-05-21T03:08:18.873Z,94.76
2023-05-21T03:09:18.914Z,95.17
2023-05-21T03:10:19.613Z,94.96
2023-05-21T03:11:18.843Z,95.06
2023-05-21T03:12:18.872Z,95.62
2023-05-21T03:13:18.878Z,95.47
2023-05-21T03:14:18.839Z,95.06
2023-05-21T03:15:18.804Z,95.31
2023-05-21T03:16:18.840Z,95.51
2023-05-21T03:17:18.792Z,95.57
2023-05-21T03:18:18.815Z,95.37
2023-05-21T03:19:18.807Z,95.47
2023-05-21T03:20:18.818Z,95.37
2023-05-21T03:21:18.769Z,95.37
2023-05-21T03:22:18.768Z,95.37
2023-05-21T03:23:18.761Z,95.98
2023-05-21T03:24:18.772Z,95.82
2023-05-21T03:25:18.728Z,95.87
2023-05-21T03:26:18.729Z,95.72
2023-05-21T03:27:18.708Z,95.98
2023-05-21T03:28:18.707Z,96.02
2023-05-21T03:29:18.706Z,96.02
2023-05-21T03:30:18.718Z,95.72
2023-05-21T03:31:18.679Z,95.92
2023-05-21T03:32:18.757Z,95.92
2023-05-21T03:33:18.714Z,96.02
2023-05-21T03:34:18.674Z,95.98
2023-05-21T03:35:18.649Z,96.33
2023-05-21T03:36:18.657Z,97.04
2023-05-21T03:37:18.639Z,97.04
2023-05-21T03:38:18.676Z,97.04
2023-05-21T03:39:18.655Z,97.04
2023-05-21T03:40:18.622Z,96.23
2023-05-21T03:41:18.603Z,96.43
2023-05-21T03:42:18.593Z,97.04
2023-05-21T03:43:18.584Z,96.12
2023-05-21T03:44:18.630Z,96.48
2023-05-21T03:45:18.590Z,97.04
2023-05-21T03:46:18.635Z,96.53
2023-05-21T03:47:18.579Z,96.48
2023-05-21T03:48:18.572Z,96.33
2023-05-21T03:49:18.532Z,96.83
2023-05-21T03:50:18.532Z,96.83
2023-05-21T03:51:18.544Z,96.43
2023-05-21T03:52:18.517Z,96.63
2023-05-21T03:53:18.497Z,96.73
2023-05-21T03:54:18.523Z,96.63
2023-05-21T03:55:18.480Z,96.48
2023-05-21T03:56:18.489Z,96.63
2023-05-21T03:57:18.485Z,96.73
2023-05-21T03:58:18.461Z,96.83
2023-05-21T03:59:18.443Z,96.83
2023-05-21T04:00:18.456Z,97.24
2023-05-21T04:01:18.418Z,97.24
2023-05-21T04:02:18.559Z,96.99
2023-05-21T04:03:18.718Z,96.63
2023-05-21T04:04:19.151Z,96.63
2023-05-21T04:05:18.402Z,96.43
2023-05-21T04:06:18.413Z,96.69
2023-05-21T04:07:18.385Z,96.53
2023-05-21T04:08:18.468Z,96.73
2023-05-21T04:09:18.395Z,96.73
2023-05-21T04:10:18.380Z,96.53
2023-05-21T04:11:18.333Z,96.83
2023-05-21T04:12:19.039Z,96.83
2023-05-21T04:13:18.333Z,96.83
2023-05-21T04:14:18.342Z,96.63
2023-05-21T04:15:18.326Z,96.53
2023-05-21T04:16:18.329Z,96.63
2023-05-21T04:17:18.296Z,96.53
2023-05-21T04:18:18.306Z,96.63
2023-05-21T04:19:18.365Z,96.59
2023-05-21T04:20:18.370Z,96.59
2023-05-21T04:21:18.293Z,96.83
2023-05-21T04:22:18.264Z,96.63
2023-05-21T04:23:18.257Z,96.89
2023-05-21T04:24:18.242Z,96.73
2023-05-21T04:25:18.237Z,96.63
2023-05-21T04:26:18.233Z,96.83
2023-05-21T04:27:18.250Z,96.48
2023-05-21T04:28:18.276Z,96.89
2023-05-21T04:29:18.225Z,96.94
2023-05-21T04:30:18.215Z,96.73
2023-05-21T04:31:18.214Z,96.28
2023-05-21T04:32:18.183Z,96.83
2023-05-21T04:33:18.637Z,96.79
2023-05-21T04:34:18.195Z,96.69
2023-05-21T04:35:18.160Z,96.18
2023-05-21T04:36:18.152Z,96.99
2023-05-21T04:37:18.135Z,96.99
2023-05-21T04:38:18.123Z,96.59
2023-05-21T04:39:18.140Z,96.38
2023-05-21T04:40:18.163Z,96.08
2023-05-21T04:41:18.099Z,96.08
2023-05-21T04:42:18.103Z,95.87
2023-05-21T04:43:18.104Z,95.87
2023-05-21T04:44:18.091Z,95.87
2023-05-21T04:45:18.071Z,96.08
2023-05-21T04:46:18.101Z,95.87
2023-05-21T04:47:18.052Z,95.87
2023-05-21T04:48:18.036Z,95.98
2023-05-21T04:49:18.039Z,95.67
2023-05-21T04:50:18.020Z,95.98
2023-05-21T04:51:18.021Z,95.37
2023-05-21T04:52:17.999Z,95.73
2023-05-21T04:53:18.009Z,95.26
2023-05-21T04:54:17.986Z,95.42
2023-05-21T04:55:17.972Z,95.42
2023-05-21T04:56:17.989Z,95.83
2023-05-21T04:57:17.953Z,95.32
2023-05-21T04:58:18.000Z,95.32
2023-05-21T04:59:17.989Z,95.02
2023-05-21T05:00:17.933Z,95.32
2023-05-21T05:01:17.959Z,95.12
2023-05-21T05:02:17.933Z,95.42
2023-05-21T05:03:18.023Z,95.02
2023-05-21T05:04:17.912Z,94.67
2023-05-21T05:05:17.892Z,94.17
2023-05-21T05:06:18.141Z,94.77
2023-05-21T05:07:17.867Z,95.07
2023-05-21T05:08:17.860Z,95.18
2023-05-21T05:09:17.852Z,94.67
2023-05-21T05:10:17.835Z,94.46
2023-05-21T05:11:17.840Z,94.67
2023-05-21T05:12:17.870Z,95.13
2023-05-21T05:13:17.823Z,94.57
2023-05-21T05:14:17.800Z,94.42
2023-05-21T05:15:17.800Z,94.87
2023-05-21T05:16:17.806Z,94.87
2023-05-21T05:17:17.790Z,94.83
2023-05-21T05:18:17.795Z,94.73
2023-05-21T05:19:17.818Z,94.42
2023-05-21T05:20:17.742Z,94.42
2023-05-21T05:21:17.773Z,94.22
2023-05-21T05:22:17.728Z,94.18
2023-05-21T05:23:17.724Z,93.61
2023-05-21T05:24:17.719Z,94.93
2023-05-21T05:25:17.711Z,94.32
2023-05-21T05:26:17.747Z,94.53
2023-05-21T05:27:17.738Z,94.02
2023-05-21T05:28:17.677Z,93.81
2023-05-21T05:29:17.687Z,94.53
2023-05-21T05:30:17.655Z,94.22
2023-05-21T05:31:17.685Z,95.03
2023-05-21T05:32:17.647Z,94.32
2023-05-21T05:33:17.671Z,94.32
2023-05-21T05:34:17.630Z,94.62
2023-05-21T05:35:17.633Z,95.03
2023-05-21T05:36:17.597Z,94.38
2023-05-21T05:37:17.601Z,93.87
2023-05-21T05:38:17.604Z,93.77
2023-05-21T05:39:17.613Z,94.48
2023-05-21T05:40:17.573Z,93.97
2023-05-21T05:41:17.568Z,93.97
2023-05-21T05:42:17.554Z,92.96
2023-05-21T05:43:17.548Z,93.97
2023-05-21T05:44:17.529Z,93.61
2023-05-21T05:45:17.560Z,94.18
2023-05-21T05:46:17.583Z,93.87
2023-05-21T05:47:17.509Z,94.02
2023-05-21T05:48:17.571Z,94.07
2023-05-21T05:49:17.540Z,94.53
2023-05-21T05:50:17.510Z,93.67
2023-05-21T05:51:17.539Z,94.18
2023-05-21T05:52:17.531Z,94.07
2023-05-21T05:53:17.537Z,93.16
2023-05-21T05:54:17.534Z,94.53
2023-05-21T05:55:17.583Z,94.48
2023-05-21T05:56:17.437Z,94.18
2023-05-21T05:57:17.593Z,94.27
2023-05-21T05:58:17.433Z,92.71
2023-05-21T05:59:17.417Z,93.67
2023-05-21T06:00:17.390Z,94.13
2023-05-21T06:01:17.402Z,93.02
2023-05-21T06:02:17.395Z,93.42
2023-05-21T06:03:17.490Z,92.96
2023-05-21T06:04:17.354Z,92.91
2023-05-21T06:05:17.422Z,92.22
2023-05-21T06:06:17.519Z,92.16
2023-05-21T06:07:17.333Z,92.77
2023-05-21T06:08:17.318Z,92.51
2023-05-21T06:09:17.317Z,93.12
2023-05-21T06:10:17.318Z,92.87
2023-05-21T06:11:17.362Z,92.06
2023-05-21T06:12:17.332Z,92.67
2023-05-21T06:13:17.350Z,92.31
2023-05-21T06:14:17.277Z,93.42
2023-05-21T06:15:17.270Z,93.42
2023-05-21T06:16:17.271Z,93.12
2023-05-21T06:17:17.259Z,93.02
2023-05-21T06:18:17.256Z,92.61
2023-05-21T06:19:17.308Z,92.36
2023-05-21T06:20:17.232Z,92.26
2023-05-21T06:21:17.285Z,91.86
2023-05-21T06:22:17.200Z,91.66
2023-05-21T06:23:17.210Z,92.51
2023-05-21T06:24:17.217Z,93.52
2023-05-21T06:25:17.377Z,92.57
2023-05-21T06:26:17.368Z,92.22
2023-05-21T06:27:17.183Z,91.82
2023-05-21T06:28:17.154Z,91.96
2023-05-21T06:29:17.187Z,91.96
2023-05-21T06:30:17.162Z,92.47
2023-05-21T06:31:17.165Z,93.07
2023-05-21T06:32:17.259Z,92.12
2023-05-21T06:33:17.224Z,92.16
2023-05-21T06:34:17.109Z,92.26
2023-05-21T06:35:17.113Z,91.75
2023-05-21T06:36:17.108Z,92.47
2023-05-21T06:37:17.098Z,92.16
2023-05-21T06:38:17.074Z,92.83
2023-05-21T06:39:17.062Z,91.71
2023-05-21T06:40:17.120Z,91.71
2023-05-21T06:41:17.086Z,91.66
2023-05-21T06:42:17.070Z,91.51
2023-05-21T06:43:17.109Z,91.61
2023-05-21T06:44:17.009Z,92.02
2023-05-21T06:45:17.018Z,90.91
2023-05-21T06:46:17.077Z,91.82
2023-05-21T06:47:17.018Z,91.71
2023-05-21T06:48:17.033Z,91.11
2023-05-21T06:49:16.998Z,91.82
2023-05-21T06:50:16.979Z,91.97
2023-05-21T06:51:17.022Z,90.91
2023-05-21T06:52:17.132Z,91.82
2023-05-21T06:53:16.998Z,91.82
2023-05-21T06:54:16.927Z,92.02
2023-05-21T06:55:16.924Z,90.76
2023-05-21T06:56:16.921Z,90.31
2023-05-21T06:57:16.931Z,89.76
2023-05-21T06:58:16.913Z,88.17
2023-05-21T06:59:16.912Z,87.05
2023-05-21T07:00:16.890Z,87.26
2023-05-21T07:01:17.058Z,87.32
2023-05-21T07:02:16.995Z,85.96
2023-05-21T07:03:16.932Z,85.96
2023-05-21T07:04:16.956Z,84.33
2023-05-21T07:05:16.887Z,81.81
2023-05-21T07:06:16.912Z,83.62
2023-05-21T07:07:16.839Z,82.96
2023-05-21T07:08:16.837Z,84.97
2023-05-21T07:09:16.819Z,86.91
2023-05-21T07:10:16.802Z,86.27
2023-05-21T07:11:16.855Z,87.27
2023-05-21T07:12:16.767Z,83.76
2023-05-21T07:13:16.783Z,83.56
2023-05-21T07:14:16.769Z,84.91
2023-05-21T07:15:16.755Z,85.76
2023-05-21T07:16:16.784Z,85.38
2023-05-21T07:17:16.766Z,83.12
2023-05-21T07:18:16.722Z,83.46
2023-05-21T07:19:16.809Z,84.83
2023-05-21T07:20:16.710Z,83.08
2023-05-21T07:21:16.714Z,82.15
2023-05-21T07:22:16.709Z,84.27
2023-05-21T07:23:16.699Z,83.62
2023-05-21T07:24:16.684Z,82.11
2023-05-21T07:25:16.766Z,82.88
2023-05-21T07:26:16.668Z,83.02
2023-05-21T07:27:25.287Z,83.32
2023-05-21T07:28:17.681Z,84.57
2023-05-21T07:29:16.637Z,83.72
2023-05-21T07:30:16.621Z,83.39
2023-05-21T07:31:16.635Z,82.82
2023-05-21T07:32:16.602Z,83.62
2023-05-21T07:33:16.779Z,83.62
2023-05-21T07:34:16.578Z,84.03
2023-05-21T07:35:16.704Z,83.62
2023-05-21T07:36:16.566Z,83.89
2023-05-21T07:37:16.611Z,85.02
2023-05-21T07:38:16.560Z,84.67
2023-05-21T07:39:16.591Z,85.92
2023-05-21T07:40:16.580Z,86.07
2023-05-21T07:41:18.644Z,85.52
2023-05-21T07:42:16.520Z,86.63
2023-05-21T07:43:16.517Z,85.62
2023-05-21T07:44:16.508Z,86.22
2023-05-21T07:45:16.543Z,85.78
2023-05-21T07:46:16.577Z,85.68
2023-05-21T07:47:16.486Z,85.38
2023-05-21T07:48:16.470Z,85.38
2023-05-21T07:49:16.562Z,84.57
2023-05-21T07:50:16.479Z,84.33
2023-05-21T07:51:16.495Z,85.08
2023-05-21T07:52:16.537Z,84.29
2023-05-21T07:53:16.441Z,82.71
2023-05-21T07:54:16.432Z,84.39
2023-05-21T07:55:16.427Z,82.98
2023-05-21T07:56:16.412Z,83.45
2023-05-21T07:57:16.625Z,82.07
2023-05-21T07:58:16.393Z,82.74
2023-05-21T07:59:16.395Z,83.47
2023-05-21T08:00:16.393Z,81.41
2023-05-21T08:01:16.414Z,81.18
2023-05-21T08:02:16.371Z,79.77
2023-05-21T08:03:16.581Z,81.21
2023-05-21T08:04:16.458Z,80.99
2023-05-21T08:05:16.582Z,81.79
2023-05-21T08:06:16.343Z,82.20
2023-05-21T08:07:16.348Z,81.05
2023-05-21T08:08:16.306Z,80.91
2023-05-21T08:09:16.337Z,80.57
2023-05-21T08:10:19.077Z,80.47
2023-05-21T08:11:16.314Z,79.77
2023-05-21T08:12:16.301Z,80.21
2023-05-21T08:13:16.312Z,80.17
2023-05-21T08:14:16.276Z,79.30
2023-05-21T08:15:16.295Z,79.91
2023-05-21T08:16:16.399Z,82.30
2023-05-21T08:17:16.252Z,80.95
2023-05-21T08:18:16.359Z,81.23
2023-05-21T08:19:16.325Z,81.93
2023-05-21T08:20:16.225Z,81.05
2023-05-21T08:21:16.241Z,80.17
2023-05-21T08:22:16.267Z,80.43
2023-05-21T08:23:16.227Z,77.25
2023-05-21T08:24:16.186Z,77.25
2023-05-21T08:25:16.228Z,77.22
2023-05-21T08:26:16.173Z,78.89
2023-05-21T08:27:16.232Z,80.10
2023-05-21T08:28:16.232Z,78.35
2023-05-21T08:29:16.173Z,78.02
2023-05-21T08:30:16.164Z,76.28
2023-05-21T08:31:16.228Z,77.75
2023-05-21T08:32:16.306Z,78.33
2023-05-21T08:33:16.137Z,78.39
2023-05-21T08:34:16.108Z,78.83
2023-05-21T08:35:16.149Z,78.19
2023-05-21T08:36:16.158Z,77.59
2023-05-21T08:37:16.081Z,78.77
2023-05-21T08:38:16.082Z,79.06
2023-05-21T08:39:16.062Z,78.42
2023-05-21T08:40:16.081Z,78.46
2023-05-21T08:41:16.043Z,79.33
2023-05-21T08:42:25.596Z,78.56
2023-05-21T08:43:17.100Z,79.06
2023-05-21T08:44:16.071Z,78.22
2023-05-21T08:45:16.005Z,77.69
2023-05-21T08:46:16.031Z,77.28
2023-05-21T08:47:16.008Z,77.83
2023-05-21T08:48:16.048Z,78.69
2023-05-21T08:49:15.984Z,77.22
2023-05-21T08:50:15.997Z,77.48
2023-05-21T08:51:15.956Z,76.52
2023-05-21T08:52:16.034Z,78.89
2023-05-21T08:53:27.499Z,77.15
2023-05-21T08:54:16.961Z,76.04
2023-05-21T08:55:15.956Z,76.54
2023-05-21T08:56:15.930Z,75.41
2023-05-21T08:57:15.920Z,76.28
2023-05-21T08:58:15.910Z,76.14
2023-05-21T08:59:15.983Z,74.93
2023-05-21T09:00:15.907Z,75.63
2023-05-21T09:01:15.948Z,74.76
2023-05-21T09:02:15.879Z,74.56
2023-05-21T09:03:15.986Z,75.37
2023-05-21T09:04:20.942Z,73.63
2023-05-21T09:05:16.943Z,72.92
2023-05-21T09:06:15.843Z,72.59
2023-05-21T09:07:15.910Z,71.42
2023-05-21T09:08:15.961Z,74.43
2023-05-21T09:09:15.820Z,71.66
2023-05-21T09:10:15.812Z,72.09
2023-05-21T09:11:15.810Z,69.79
2023-05-21T09:12:15.780Z,69.43
2023-05-21T09:13:15.823Z,70.53
2023-05-21T09:14:15.765Z,69.99
2023-05-21T09:15:15.802Z,72.66
2023-05-21T09:16:15.826Z,74.23
2023-05-21T09:17:15.755Z,73.50
2023-05-21T09:18:15.757Z,73.03
2023-05-21T09:19:15.777Z,71.83
2023-05-21T09:20:15.733Z,71.89
2023-05-21T09:21:15.761Z,70.16
2023-05-21T09:22:15.704Z,72.99
2023-05-21T09:23:15.705Z,72.23
2023-05-21T09:24:15.688Z,70.92
2023-05-21T09:25:15.697Z,72.83
2023-05-21T09:26:15.668Z,73.69
2023-05-21T09:27:15.673Z,72.45
2023-05-21T09:28:15.655Z,70.12
2023-05-21T09:29:15.660Z,73.66
2023-05-21T09:30:15.658Z,73.22
2023-05-21T09:31:15.661Z,70.62
2023-05-21T09:32:15.625Z,69.76
2023-05-21T09:33:15.661Z,71.96
2023-05-21T09:34:15.653Z,71.12
2023-05-21T09:35:15.576Z,69.96
2023-05-21T09:36:15.586Z,70.23
2023-05-21T09:37:26.657Z,71.56
2023-05-21T09:38:16.655Z,69.13
2023-05-21T09:39:15.544Z,70.23
2023-05-21T09:40:15.582Z,69.79
2023-05-21T09:41:17.428Z,68.93
2023-05-21T09:42:15.526Z,69.56
2023-05-21T09:43:15.513Z,71.96
2023-05-21T09:44:15.542Z,69.73
2023-05-21T09:45:15.523Z,70.12
2023-05-21T09:46:15.506Z,69.96
2023-05-21T09:47:15.471Z,70.32
2023-05-21T09:48:15.478Z,69.53
2023-05-21T09:49:15.468Z,68.63
2023-05-21T09:50:15.490Z,69.96
2023-05-21T09:51:15.444Z,68.66
2023-05-21T09:52:15.460Z,69.36
2023-05-21T09:53:15.411Z,68.76
2023-05-21T09:54:15.423Z,69.82
2023-05-21T09:55:15.429Z,67.43
2023-05-21T09:56:15.438Z,68.66
2023-05-21T09:57:15.411Z,68.43
2023-05-21T09:58:15.395Z,69.32
2023-05-21T09:59:15.413Z,71.26
2023-05-21T10:00:16.260Z,70.66
2023-05-21T10:01:15.397Z,70.49
2023-05-21T10:02:15.453Z,70.16
2023-05-21T10:03:15.390Z,70.06
2023-05-21T10:04:15.398Z,71.03
2023-05-21T10:05:15.388Z,70.32
2023-05-21T10:06:15.358Z,69.82
2023-05-21T10:07:15.309Z,69.43
2023-05-21T10:08:15.326Z,69.49
2023-05-21T10:09:15.294Z,70.42
2023-05-21T10:10:15.317Z,68.49
2023-05-21T10:11:15.269Z,69.20
2023-05-21T10:12:15.302Z,69.36
2023-05-21T10:13:15.252Z,66.86
2023-05-21T10:14:15.761Z,68.40
2023-05-21T10:15:15.237Z,68.76
2023-05-21T10:16:15.275Z,68.49
2023-05-21T10:17:15.217Z,68.43
2023-05-21T10:18:15.243Z,68.33
2023-05-21T10:19:15.273Z,68.30
2023-05-21T10:20:15.237Z,67.47
2023-05-21T10:21:15.285Z,66.53
2023-05-21T10:22:15.209Z,66.47
2023-05-21T10:23:15.211Z,68.26
2023-05-21T10:24:15.178Z,67.47
2023-05-21T10:25:15.149Z,66.50
2023-05-21T10:26:15.197Z,67.30
2023-05-21T10:27:15.160Z,66.80
2023-05-21T10:28:15.239Z,66.57
2023-05-21T10:29:16.330Z,65.58
2023-05-21T10:30:15.143Z,64.00
2023-05-21T10:31:15.129Z,63.13
2023-05-21T10:32:15.157Z,63.98
2023-05-21T10:33:15.150Z,65.71
2023-05-21T10:34:15.098Z,65.68
2023-05-21T10:35:15.097Z,65.98
2023-05-21T10:36:15.068Z,61.71
2023-05-21T10:37:15.128Z,62.30
2023-05-21T10:38:15.120Z,62.23
2023-05-21T10:39:15.042Z,64.12
2023-05-21T10:40:15.049Z,64.58
2023-05-21T10:41:15.025Z,64.12
2023-05-21T10:42:15.040Z,62.49
2023-05-21T10:43:15.024Z,64.85
2023-05-21T10:44:15.105Z,62.37
2023-05-21T10:45:14.988Z,64.25
2023-05-21T10:46:15.026Z,63.39
2023-05-21T10:47:14.991Z,60.77
2023-05-21T10:48:15.021Z,63.30
2023-05-21T10:49:14.954Z,60.14
2023-05-21T10:50:14.991Z,58.60
2023-05-21T10:51:14.951Z,60.93
2023-05-21T10:52:14.956Z,61.35
2023-05-21T10:53:14.946Z,62.53
2023-05-21T10:54:14.932Z,60.58
2023-05-21T10:55:14.984Z,62.50
2023-05-21T10:56:14.964Z,63.30
2023-05-21T10:57:14.905Z,58.80
2023-05-21T10:58:14.922Z,60.78
2023-05-21T10:59:14.882Z,61.02
2023-05-21T11:00:14.921Z,58.91
2023-05-21T11:01:14.922Z,58.91
2023-05-21T11:02:14.925Z,59.89
2023-05-21T11:03:14.934Z,63.10
2023-05-21T11:04:14.847Z,60.74
2023-05-21T11:05:14.878Z,61.67
2023-05-21T11:06:14.827Z,62.13
2023-05-21T11:07:14.810Z,62.37
2023-05-21T11:08:15.019Z,59.75
2023-05-21T11:09:14.794Z,62.37
2023-05-21T11:10:14.945Z,62.37
2023-05-21T11:11:14.797Z,60.74
2023-05-21T11:12:14.791Z,61.24
2023-05-21T11:13:14.819Z,63.20
2023-05-21T11:14:14.769Z,58.50
2023-05-21T11:15:14.753Z,58.70
2023-05-21T11:16:14.780Z,59.07
2023-05-21T11:17:14.930Z,57.51
2023-05-21T11:18:14.727Z,58.04
2023-05-21T11:19:14.749Z,58.67
2023-05-21T11:20:14.751Z,60.49
2023-05-21T11:21:14.700Z,59.80
2023-05-21T11:22:14.711Z,59.58
2023-05-21T11:23:14.678Z,60.50
2023-05-21T11:24:14.680Z,59.01
2023-05-21T11:25:14.755Z,59.39
2023-05-21T11:26:14.678Z,60.12
2023-05-21T11:27:14.656Z,59.09
2023-05-21T11:28:14.716Z,58.67
2023-05-21T11:29:14.632Z,58.67
2023-05-21T11:30:14.706Z,56.56
2023-05-21T11:31:14.673Z,56.49
2023-05-21T11:32:14.625Z,56.26
2023-05-21T11:33:14.704Z,56.63
2023-05-21T11:34:14.595Z,56.76
2023-05-21T11:35:14.580Z,58.60
2023-05-21T11:36:14.613Z,56.71
2023-05-21T11:37:14.563Z,57.85
2023-05-21T11:38:14.614Z,58.12
2023-05-21T11:39:14.557Z,58.36
2023-05-21T11:40:14.594Z,57.20
2023-05-21T11:41:14.633Z,56.26
2023-05-21T11:42:14.558Z,57.85
2023-05-21T11:43:14.563Z,59.56
2023-05-21T11:44:14.535Z,59.47
2023-05-21T11:45:14.868Z,59.09
2023-05-21T11:46:14.600Z,59.96
2023-05-21T11:47:14.545Z,58.60
2023-05-21T11:48:14.549Z,60.49
2023-05-21T11:49:14.489Z,59.34
2023-05-21T11:50:14.502Z,59.69
2023-05-21T11:51:14.463Z,59.12
2023-05-21T11:52:14.505Z,60.25
2023-05-21T11:53:14.467Z,59.15
2023-05-21T11:54:14.481Z,58.92
2023-05-21T11:55:14.437Z,59.22
2023-05-21T11:56:14.457Z,59.89
2023-05-21T11:57:14.445Z,59.42
2023-05-21T11:58:14.440Z,59.76
2023-05-21T11:59:16.089Z,59.12
2023-05-21T12:00:14.392Z,60.12
2023-05-21T12:01:14.387Z,60.31
2023-05-21T12:02:14.414Z,60.88
2023-05-21T12:03:14.541Z,60.69
2023-05-21T12:04:14.463Z,60.58
2023-05-21T12:05:14.352Z,59.86
2023-05-21T12:06:14.412Z,58.34
2023-05-21T12:07:14.341Z,57.95
2023-05-21T12:08:14.362Z,57.95
2023-05-21T12:09:14.332Z,60.40
2023-05-21T12:10:14.471Z,58.26
2023-05-21T12:11:14.311Z,57.99
2023-05-21T12:12:14.331Z,58.32
2023-05-21T12:13:14.302Z,59.80
2023-05-21T12:14:14.328Z,59.83
2023-05-21T12:15:14.265Z,60.58
2023-05-21T12:16:14.383Z,61.32
2023-05-21T12:17:14.257Z,59.69
2023-05-21T12:18:14.295Z,60.52
2023-05-21T12:19:14.250Z,62.10
2023-05-21T12:20:14.278Z,61.58
2023-05-21T12:21:14.222Z,60.71
2023-05-21T12:22:14.266Z,62.13
2023-05-21T12:23:14.214Z,62.87
2023-05-21T12:24:14.252Z,60.78
2023-05-21T12:25:14.200Z,62.05
2023-05-21T12:26:14.202Z,60.46
2023-05-21T12:27:14.205Z,60.58
2023-05-21T12:28:14.203Z,61.94
2023-05-21T12:29:14.167Z,62.37
2023-05-21T12:30:14.169Z,62.43
2023-05-21T12:31:14.167Z,62.23
2023-05-21T12:32:14.182Z,62.90
2023-05-21T12:33:14.144Z,62.73
2023-05-21T12:34:14.187Z,60.58
2023-05-21T12:35:14.111Z,62.50
2023-05-21T12:36:14.115Z,62.10
2023-05-21T12:37:14.089Z,63.33
2023-05-21T12:38:14.099Z,63.20
2023-05-21T12:39:14.089Z,62.23
2023-05-21T12:40:14.132Z,62.16
2023-05-21T12:41:14.077Z,63.40
2023-05-21T12:42:14.068Z,61.71
2023-05-21T12:43:14.065Z,62.10
2023-05-21T12:44:14.056Z,62.31
2023-05-21T12:45:14.032Z,61.72
2023-05-21T12:46:14.070Z,63.37
2023-05-21T12:47:14.031Z,62.18
2023-05-21T12:48:14.001Z,62.04
2023-05-21T12:49:14.004Z,64.98
2023-05-21T12:50:14.282Z,64.09
2023-05-21T12:51:13.998Z,61.58
2023-05-21T12:52:14.029Z,62.21